createdAt,value
2023-02-19T00:01:47.844Z,12.13
2023-02-19T00:04:20.265Z,10.27
2023-02-19T00:06:48.643Z,9.20
2023-02-19T00:09:18.105Z,8.88
2023-02-19T00:11:46.437Z,8.70
2023-02-19T00:14:19.673Z,8.50
2023-02-19T00:16:47.554Z,8.38
2023-02-19T00:19:18.193Z,8.13
2023-02-19T00:21:45.493Z,6.93
2023-02-19T00:24:14.005Z,8.18
2023-02-19T00:26:42.250Z,6.78
2023-02-19T00:29:14.067Z,7.30
2023-02-19T00:31:43.039Z,7.85
2023-02-19T00:34:11.800Z,8.15
2023-02-19T00:36:41.232Z,7.10
2023-02-19T00:39:12.044Z,7.80
2023-02-19T00:41:39.217Z,7.97
2023-02-19T00:44:08.578Z,8.52
2023-02-19T00:46:38.414Z,8.00
2023-02-19T00:49:07.135Z,9.40
2023-02-19T00:51:37.097Z,8.10
2023-02-19T00:54:05.561Z,7.45
2023-02-19T00:56:33.144Z,8.38
2023-02-19T00:59:00.458Z,7.80
2023-02-19T01:01:27.997Z,9.10
2023-02-19T01:03:55.562Z,7.22
2023-02-19T01:06:23.752Z,8.80
2023-02-19T01:08:51.126Z,7.97
2023-02-19T01:11:18.830Z,12.07
2023-02-19T01:13:46.081Z,8.82
2023-02-19T01:16:20.149Z,8.20
2023-02-19T01:18:48.357Z,9.05
2023-02-19T01:21:19.438Z,9.55
2023-02-19T01:23:47.434Z,8.73
2023-02-19T01:26:18.322Z,8.55
2023-02-19T01:28:47.727Z,9.13
2023-02-19T01:31:18.887Z,9.38
2023-02-19T01:33:55.731Z,8.73
2023-02-19T01:36:23.224Z,7.60
2023-02-19T01:38:50.686Z,9.48
2023-02-19T01:41:21.523Z,10.10
2023-02-19T01:44:02.938Z,10.18
2023-02-19T01:46:35.266Z,10.90
2023-02-19T01:49:08.307Z,9.90
2023-02-19T01:51:39.271Z,10.85
2023-02-19T01:54:09.069Z,10.70
2023-02-19T01:56:38.820Z,10.65
2023-02-19T01:59:07.500Z,10.48
2023-02-19T02:01:38.695Z,10.85
2023-02-19T02:04:07.242Z,11.18
2023-02-19T02:06:56.504Z,11.63
2023-02-19T02:09:47.964Z,10.57
2023-02-19T02:12:15.831Z,9.73
2023-02-19T02:14:47.349Z,11.45
2023-02-19T02:17:30.561Z,9.45
2023-02-19T02:20:41.566Z,8.77
2023-02-19T02:23:20.392Z,8.50
2023-02-19T02:25:57.264Z,8.57
2023-02-19T02:29:01.241Z,9.20
2023-02-19T02:31:41.084Z,8.55
2023-02-19T02:34:16.328Z,7.47
2023-02-19T02:36:47.621Z,8.07
2023-02-19T02:39:19.375Z,7.60
2023-02-19T02:42:14.735Z,7.47
2023-02-19T02:45:04.544Z,7.45
2023-02-19T02:47:42.215Z,7.32
2023-02-19T02:50:15.896Z,7.43
2023-02-19T02:53:03.848Z,8.15
2023-02-19T02:55:36.795Z,8.13
2023-02-19T02:58:05.314Z,7.88
2023-02-19T03:00:52.953Z,7.43
2023-02-19T03:03:23.709Z,7.80
2023-02-19T03:05:55.536Z,7.72
2023-02-19T03:08:31.703Z,7.03
2023-02-19T03:11:24.862Z,6.90
2023-02-19T03:14:37.297Z,7.00
2023-02-19T03:18:00.328Z,6.53
2023-02-19T03:20:28.503Z,6.78
2023-02-19T03:22:58.563Z,6.63
2023-02-19T03:25:52.491Z,6.43
2023-02-19T03:29:02.241Z,6.35
2023-02-19T03:31:32.694Z,6.60
2023-02-19T03:34:05.866Z,5.70
2023-02-19T03:36:43.015Z,5.88
2023-02-19T03:39:14.614Z,6.70
2023-02-19T03:42:06.422Z,6.05
2023-02-19T03:44:44.844Z,6.53
2023-02-19T03:47:21.099Z,5.22
2023-02-19T03:50:07.160Z,6.43
2023-02-19T03:52:43.643Z,7.20
2023-02-19T03:55:24.003Z,6.13
2023-02-19T03:58:01.182Z,5.72
2023-02-19T04:00:34.582Z,6.28
2023-02-19T04:03:34.247Z,6.00
2023-02-19T04:06:05.822Z,5.80
2023-02-19T04:08:36.306Z,4.88
2023-02-19T04:11:07.201Z,5.65
2023-02-19T04:13:52.330Z,5.90
2023-02-19T04:16:24.091Z,6.45
2023-02-19T04:18:55.607Z,6.93
2023-02-19T04:21:24.082Z,6.15
2023-02-19T04:23:51.608Z,5.60
2023-02-19T04:26:22.791Z,6.22
2023-02-19T04:28:50.064Z,6.97
2023-02-19T04:31:17.655Z,5.93
2023-02-19T04:33:44.849Z,7.05
2023-02-19T04:36:12.377Z,5.78
2023-02-19T04:38:39.601Z,6.05
2023-02-19T04:41:06.847Z,6.13
2023-02-19T04:43:34.100Z,6.00
2023-02-19T04:46:02.504Z,8.18
2023-02-19T04:48:30.050Z,5.72
2023-02-19T04:50:57.319Z,8.25
2023-02-19T04:53:24.863Z,7.43
2023-02-19T04:55:53.452Z,5.80
2023-02-19T04:58:21.426Z,6.95
2023-02-19T05:00:52.226Z,6.32
2023-02-19T05:03:19.644Z,6.32
2023-02-19T05:05:46.905Z,6.85
2023-02-19T05:08:14.270Z,6.65
2023-02-19T05:10:41.567Z,5.28
2023-02-19T05:13:09.084Z,5.60
2023-02-19T05:15:36.670Z,6.45
2023-02-19T05:18:04.308Z,4.60
2023-02-19T05:20:31.569Z,6.25
2023-02-19T05:22:58.858Z,5.55
2023-02-19T05:25:26.033Z,5.43
2023-02-19T05:28:13.423Z,4.88
2023-02-19T05:30:40.681Z,4.50
2023-02-19T05:33:07.890Z,4.30
2023-02-19T05:35:35.100Z,4.00
2023-02-19T05:38:02.274Z,4.65
2023-02-19T05:40:29.411Z,5.10
2023-02-19T05:42:56.616Z,4.68
2023-02-19T05:45:23.792Z,4.35
2023-02-19T05:47:51.111Z,4.57
2023-02-19T05:50:18.447Z,3.95
2023-02-19T05:52:45.650Z,4.60
2023-02-19T05:55:13.664Z,3.45
2023-02-19T05:57:43.642Z,3.83
2023-02-19T06:00:19.405Z,3.85
2023-02-19T06:02:47.528Z,4.30
2023-02-19T06:05:14.975Z,3.75
2023-02-19T06:07:43.062Z,3.95
2023-02-19T06:10:11.429Z,4.38
2023-02-19T06:12:39.510Z,4.82
2023-02-19T06:15:07.505Z,4.10
2023-02-19T06:17:35.238Z,5.32
2023-02-19T06:20:02.798Z,4.57
2023-02-19T06:22:30.046Z,5.22
2023-02-19T06:24:57.315Z,4.03
2023-02-19T06:27:24.557Z,4.35
2023-02-19T06:29:51.874Z,4.82
2023-02-19T06:32:19.382Z,4.05
2023-02-19T06:34:46.610Z,4.22
2023-02-19T06:37:13.806Z,4.38
2023-02-19T06:39:41.012Z,4.30
2023-02-19T06:42:08.442Z,3.78
2023-02-19T06:44:35.669Z,4.95
2023-02-19T06:47:02.881Z,4.13
2023-02-19T06:49:30.028Z,3.97
2023-02-19T06:51:57.317Z,4.80
2023-02-19T06:54:25.893Z,4.57
2023-02-19T06:56:53.187Z,4.63
2023-02-19T06:59:20.368Z,4.28
2023-02-19T07:01:47.652Z,4.38
2023-02-19T07:04:15.929Z,3.97
2023-02-19T07:06:43.671Z,3.88
2023-02-19T07:09:11.681Z,3.65
2023-02-19T07:11:39.905Z,3.28
2023-02-19T07:14:08.891Z,4.13
2023-02-19T07:16:36.972Z,3.30
2023-02-19T07:19:04.239Z,3.53
2023-02-19T07:21:31.503Z,4.80
2023-02-19T07:23:58.840Z,2.92
2023-02-19T07:26:26.135Z,2.78
2023-02-19T07:28:53.669Z,3.20
2023-02-19T07:31:23.175Z,3.33
2023-02-19T07:33:50.879Z,3.53
2023-02-19T07:36:19.990Z,2.92
2023-02-19T07:38:47.737Z,2.58
2023-02-19T07:41:15.117Z,4.65
2023-02-19T07:43:42.380Z,3.22
2023-02-19T07:46:12.448Z,3.22
2023-02-19T07:48:41.372Z,2.97
2023-02-19T07:51:12.705Z,5.03
2023-02-19T07:53:40.153Z,2.80
2023-02-19T07:56:10.337Z,3.17
2023-02-19T07:58:37.569Z,4.07
2023-02-19T08:01:40.587Z,3.15
2023-02-19T08:04:07.954Z,5.07
2023-02-19T08:06:35.188Z,3.10
2023-02-19T08:09:03.488Z,3.67
2023-02-19T08:11:49.273Z,4.05
2023-02-19T08:14:16.601Z,4.05
2023-02-19T08:16:51.094Z,5.88
2023-02-19T08:19:18.772Z,3.28
2023-02-19T08:21:46.111Z,3.28
2023-02-19T08:24:13.542Z,3.03
2023-02-19T08:26:40.837Z,3.03
2023-02-19T08:29:07.991Z,3.42
2023-02-19T08:31:35.758Z,3.40
2023-02-19T08:34:03.302Z,4.22
2023-02-19T08:36:30.807Z,2.88
2023-02-19T08:38:58.102Z,3.00
2023-02-19T08:41:25.372Z,2.58
2023-02-19T08:43:52.564Z,3.05
2023-02-19T08:46:19.880Z,2.17
2023-02-19T08:48:47.141Z,2.47
2023-02-19T08:51:14.879Z,2.83
2023-02-19T08:53:42.195Z,2.17
2023-02-19T08:56:15.518Z,2.35
2023-02-19T08:58:43.488Z,2.80
2023-02-19T09:01:13.764Z,2.78
2023-02-19T09:03:41.689Z,4.22
2023-02-19T09:06:15.930Z,2.08
2023-02-19T09:08:44.741Z,3.53
2023-02-19T09:11:12.372Z,3.85
2023-02-19T09:13:39.918Z,4.00
2023-02-19T09:16:07.566Z,3.97
2023-02-19T09:18:36.118Z,4.30
2023-02-19T09:21:05.779Z,4.22
2023-02-19T09:23:34.663Z,3.00
2023-02-19T09:26:04.178Z,3.83
2023-02-19T09:28:31.337Z,3.88
2023-02-19T09:31:07.414Z,3.88
2023-02-19T09:33:34.789Z,4.10
2023-02-19T09:36:03.205Z,3.25
2023-02-19T09:38:31.112Z,3.78
2023-02-19T09:40:59.798Z,4.43
2023-02-19T09:43:30.010Z,3.55
2023-02-19T09:46:08.008Z,4.05
2023-02-19T09:48:35.241Z,3.35
2023-02-19T09:51:03.782Z,4.13
2023-02-19T09:53:40.606Z,4.20
2023-02-19T09:56:08.797Z,4.50
2023-02-19T09:58:46.323Z,4.00
2023-02-19T10:01:13.891Z,5.35
2023-02-19T10:03:47.147Z,4.38
2023-02-19T10:06:19.107Z,4.60
2023-02-19T10:11:15.454Z,3.72
2023-02-19T10:13:53.679Z,4.18
2023-02-19T10:16:25.654Z,4.50
2023-02-19T10:18:53.510Z,6.05
2023-02-19T10:21:25.987Z,5.63
2023-02-19T10:24:01.759Z,4.22
2023-02-19T10:26:32.014Z,3.90
2023-02-19T10:28:59.256Z,5.05
2023-02-19T10:31:26.646Z,4.85
2023-02-19T10:33:56.616Z,3.88
2023-02-19T10:36:42.124Z,4.47
2023-02-19T10:39:42.349Z,4.80
2023-02-19T10:42:22.125Z,6.15
2023-02-19T10:44:58.962Z,9.23
2023-02-19T10:47:28.706Z,5.20
2023-02-19T10:49:59.808Z,5.25
2023-02-19T10:52:36.324Z,3.43
2023-02-19T10:55:23.750Z,5.60
2023-02-19T10:57:51.025Z,5.05
2023-02-19T11:00:27.528Z,4.90
2023-02-19T11:03:23.925Z,7.45
2023-02-19T11:06:02.503Z,6.18
2023-02-19T11:08:31.031Z,5.88
2023-02-19T11:10:58.347Z,5.53
2023-02-19T11:13:38.113Z,5.57
2023-02-19T11:16:05.729Z,5.25
2023-02-19T11:18:35.030Z,6.55
2023-02-19T11:21:04.976Z,7.60
2023-02-19T11:23:36.221Z,5.53
2023-02-19T11:26:15.602Z,6.20
2023-02-19T11:28:44.307Z,6.55
2023-02-19T11:31:20.714Z,6.72
2023-02-19T11:34:15.719Z,5.47
2023-02-19T11:36:43.105Z,6.70
2023-02-19T11:39:10.248Z,8.50
2023-02-19T11:41:46.247Z,8.35
2023-02-19T11:44:30.260Z,6.88
2023-02-19T11:47:09.240Z,6.43
2023-02-19T11:49:54.655Z,6.32
2023-02-19T11:52:40.379Z,6.55
2023-02-19T11:55:16.615Z,6.38
2023-02-19T11:57:47.965Z,6.35
2023-02-19T12:00:29.983Z,6.32
2023-02-19T12:08:54.290Z,5.93
2023-02-19T12:11:42.513Z,6.70
2023-02-19T12:14:29.942Z,6.72
2023-02-19T12:17:12.208Z,9.48
2023-02-19T12:19:49.822Z,5.90
2023-02-19T12:22:33.479Z,6.18
2023-02-19T12:25:24.709Z,6.38
2023-02-19T12:28:04.216Z,6.35
2023-02-19T12:30:47.459Z,5.93
2023-02-19T12:33:43.371Z,6.03
2023-02-19T12:36:35.698Z,10.40
2023-02-19T12:39:16.912Z,5.97
2023-02-19T12:42:12.257Z,8.23
2023-02-19T12:44:45.246Z,7.55
2023-02-19T12:47:22.960Z,11.40
2023-02-19T12:50:21.598Z,5.50
2023-02-19T12:52:55.419Z,13.95
2023-02-19T12:55:27.316Z,8.38
2023-02-19T13:00:30.118Z,9.38
2023-02-19T13:03:09.636Z,6.20
2023-02-19T13:05:55.065Z,7.15
2023-02-19T13:09:03.600Z,4.82
2023-02-19T13:12:05.816Z,5.90
2023-02-19T13:17:26.360Z,9.80
2023-02-19T13:20:01.071Z,7.80
2023-02-19T13:22:57.041Z,4.88
2023-02-19T13:25:39.930Z,7.72
2023-02-19T13:28:20.551Z,6.93
2023-02-19T13:31:00.315Z,8.27
2023-02-19T13:33:45.779Z,7.28
2023-02-19T13:36:24.264Z,8.77
2023-02-19T13:38:52.078Z,5.70
2023-02-19T13:41:27.645Z,5.13
2023-02-19T13:43:58.455Z,5.95
2023-02-19T13:46:32.957Z,4.45
2023-02-19T13:49:28.119Z,4.47
2023-02-19T13:51:56.241Z,5.97
2023-02-19T13:54:28.368Z,6.32
2023-02-19T13:57:23.521Z,6.93
2023-02-19T13:59:51.827Z,6.60
2023-02-19T14:02:21.938Z,6.10
2023-02-19T14:04:57.103Z,6.25
2023-02-19T14:07:52.561Z,3.85
2023-02-19T14:10:53.121Z,5.93
2023-02-19T14:13:51.329Z,5.57
2023-02-19T14:16:32.173Z,4.40
2023-02-19T14:18:59.489Z,5.85
2023-02-19T14:21:37.103Z,5.15
2023-02-19T14:24:05.272Z,4.38
2023-02-19T14:26:34.357Z,5.57
2023-02-19T14:29:02.813Z,7.90
2023-02-19T14:31:33.328Z,5.70
2023-02-19T14:34:04.798Z,5.70
2023-02-19T14:36:47.956Z,4.93
2023-02-19T14:39:31.799Z,6.20
2023-02-19T14:42:23.112Z,4.85
2023-02-19T14:44:57.465Z,5.70
2023-02-19T14:47:27.529Z,5.70
2023-02-19T14:50:12.646Z,6.50
2023-02-19T14:52:45.847Z,6.97
2023-02-19T14:55:30.453Z,5.35
2023-02-19T14:58:00.101Z,4.85
2023-02-19T15:00:30.074Z,4.45
2023-02-19T15:02:59.809Z,6.55
2023-02-19T15:05:30.313Z,8.88
2023-02-19T15:08:01.625Z,6.68
2023-02-19T15:10:31.761Z,4.57
2023-02-19T15:13:06.918Z,6.95
2023-02-19T15:15:37.636Z,6.40
2023-02-19T15:18:06.307Z,6.53
2023-02-19T15:20:38.806Z,5.93
2023-02-19T15:23:07.697Z,5.63
2023-02-19T15:25:37.902Z,4.88
2023-02-19T15:28:23.690Z,8.40
2023-02-19T15:30:57.973Z,7.65
2023-02-19T15:33:29.699Z,6.10
2023-02-19T15:36:00.727Z,6.03
2023-02-19T15:38:29.036Z,6.57
2023-02-19T15:40:57.943Z,4.72
2023-02-19T15:43:42.205Z,5.75
2023-02-19T15:46:19.392Z,7.43
2023-02-19T15:49:00.848Z,6.43
2023-02-19T15:51:37.855Z,5.15
2023-02-19T15:54:22.446Z,6.30
2023-02-19T15:56:58.112Z,9.18
2023-02-19T15:59:47.050Z,6.15
2023-02-19T16:02:15.909Z,6.95
2023-02-19T16:04:49.461Z,6.00
2023-02-19T16:07:36.972Z,7.07
2023-02-19T16:10:21.867Z,6.82
2023-02-19T16:13:02.566Z,5.65
2023-02-19T16:15:32.160Z,6.60
2023-02-19T16:18:00.877Z,8.10
2023-02-19T16:20:31.735Z,6.30
2023-02-19T16:23:14.908Z,6.68
2023-02-19T16:25:44.758Z,4.95
2023-02-19T16:28:26.514Z,7.53
2023-02-19T16:31:05.795Z,9.38
2023-02-19T16:33:37.705Z,7.18
2023-02-19T16:39:03.909Z,6.85
2023-02-19T16:41:31.327Z,6.50
2023-02-19T16:43:58.922Z,6.75
2023-02-19T16:46:26.350Z,9.27
2023-02-19T16:48:54.775Z,6.57
2023-02-19T16:51:27.773Z,5.43
2023-02-19T16:53:55.216Z,11.75
2023-02-19T16:56:25.609Z,7.55
2023-02-19T16:58:53.435Z,7.07
2023-02-19T17:01:21.151Z,10.10
2023-02-19T17:03:49.014Z,9.50
2023-02-19T17:06:17.229Z,10.40
2023-02-19T17:08:45.150Z,8.07
2023-02-19T17:11:15.107Z,8.55
2023-02-19T17:13:43.210Z,6.43
2023-02-19T17:16:28.128Z,8.68
2023-02-19T17:18:56.108Z,7.45
2023-02-19T17:21:28.837Z,8.15
2023-02-19T17:23:59.701Z,8.40
2023-02-19T17:26:29.653Z,8.88
2023-02-19T17:28:57.880Z,9.30
2023-02-19T17:31:25.624Z,8.82
2023-02-19T17:33:53.274Z,8.35
2023-02-19T17:36:23.664Z,9.05
2023-02-19T17:38:51.030Z,8.18
2023-02-19T17:41:18.548Z,7.35
2023-02-19T17:43:47.559Z,12.50
2023-02-19T17:46:19.601Z,9.10
2023-02-19T17:48:47.740Z,9.63
2023-02-19T17:51:15.704Z,11.18
2023-02-19T17:53:43.731Z,11.18
2023-02-19T17:56:16.904Z,9.32
2023-02-19T17:58:44.241Z,8.90
2023-02-19T18:01:12.020Z,11.00
2023-02-19T18:03:39.403Z,9.13
2023-02-19T18:06:07.174Z,8.43
2023-02-19T18:08:34.616Z,8.70
2023-02-19T18:11:01.910Z,9.75
2023-02-19T18:13:29.306Z,9.95
2023-02-19T18:15:56.525Z,7.53
2023-02-19T18:18:23.796Z,8.07
2023-02-19T18:20:51.278Z,7.13
2023-02-19T18:23:20.765Z,12.13
2023-02-19T18:25:48.184Z,9.48
2023-02-19T18:28:16.641Z,11.05
2023-02-19T18:30:43.935Z,9.68
2023-02-19T18:33:13.628Z,12.75
2023-02-19T18:35:41.242Z,9.10
2023-02-19T18:38:08.717Z,10.02
2023-02-19T18:40:36.123Z,8.25
2023-02-19T18:43:04.042Z,7.88
2023-02-19T18:45:35.402Z,8.20
2023-02-19T18:48:03.645Z,9.45
2023-02-19T18:50:31.712Z,8.48
2023-02-19T18:52:59.541Z,8.45
2023-02-19T18:55:27.264Z,11.23
2023-02-19T18:57:56.781Z,7.82
2023-02-19T19:00:29.986Z,8.50
2023-02-19T19:02:59.602Z,11.02
2023-02-19T19:05:27.239Z,8.20
2023-02-19T19:07:56.590Z,9.80
2023-02-19T19:10:24.315Z,6.07
2023-02-19T19:12:51.894Z,7.80
2023-02-19T19:15:19.280Z,8.68
2023-02-19T19:17:47.972Z,7.03
2023-02-19T19:20:18.540Z,7.35
2023-02-19T19:22:46.054Z,8.57
2023-02-19T19:25:13.639Z,6.05
2023-02-19T19:27:40.886Z,6.00
2023-02-19T19:30:08.761Z,5.82
2023-02-19T19:32:36.126Z,4.65
2023-02-19T19:35:03.851Z,6.20
2023-02-19T19:37:31.229Z,6.10
2023-02-19T19:39:58.627Z,11.13
2023-02-19T19:42:26.107Z,6.25
2023-02-19T19:44:53.418Z,6.38
2023-02-19T19:47:21.416Z,6.25
2023-02-19T19:49:48.873Z,6.75
2023-02-19T19:52:16.195Z,5.07
2023-02-19T19:54:43.719Z,5.68
2023-02-19T19:57:11.296Z,5.38
2023-02-19T19:59:39.623Z,4.53
2023-02-19T20:02:10.447Z,5.60
2023-02-19T20:04:37.712Z,4.05
2023-02-19T20:07:05.015Z,5.70
2023-02-19T20:09:32.250Z,5.22
2023-02-19T20:11:59.460Z,5.00
2023-02-19T20:14:26.843Z,6.93
2023-02-19T20:16:55.241Z,4.00
2023-02-19T20:19:22.514Z,4.93
2023-02-19T20:21:52.841Z,6.88
2023-02-19T20:24:29.228Z,6.80
2023-02-19T20:26:58.931Z,4.85
2023-02-19T20:29:33.725Z,5.25
2023-02-19T20:32:03.751Z,7.47
2023-02-19T20:34:31.851Z,5.85
2023-02-19T20:36:59.343Z,6.43
2023-02-19T20:39:29.263Z,6.15
2023-02-19T20:41:57.959Z,8.55
2023-02-19T20:44:27.251Z,4.78
2023-02-19T20:46:55.221Z,4.68
2023-02-19T20:49:24.961Z,7.53
2023-02-19T20:51:58.691Z,5.20
2023-02-19T20:54:33.316Z,5.78
2023-02-19T20:57:02.727Z,6.65
2023-02-19T20:59:35.116Z,7.15
2023-02-19T21:02:06.611Z,5.97
2023-02-19T21:04:34.458Z,8.02
2023-02-19T21:07:02.291Z,5.40
2023-02-19T21:09:29.611Z,5.93
2023-02-19T21:11:58.586Z,7.22
2023-02-19T21:14:26.806Z,6.65
2023-02-19T21:16:54.247Z,5.97
2023-02-19T21:19:22.189Z,7.88
2023-02-19T21:21:49.543Z,6.20
2023-02-19T21:24:17.216Z,6.50
2023-02-19T21:26:45.590Z,6.18
2023-02-19T21:29:19.227Z,6.40
2023-02-19T21:31:49.600Z,7.45
2023-02-19T21:34:20.950Z,5.43
2023-02-19T21:36:48.380Z,6.60
2023-02-19T21:39:18.710Z,5.57
2023-02-19T21:41:46.204Z,5.55
2023-02-19T21:44:13.822Z,7.65
2023-02-19T21:46:41.557Z,7.20
2023-02-19T21:49:13.199Z,6.68
2023-02-19T21:51:43.045Z,6.47
2023-02-19T21:54:16.337Z,5.63
2023-02-19T21:56:44.022Z,5.88
2023-02-19T21:59:13.825Z,5.90
2023-02-19T22:01:43.770Z,6.05
2023-02-19T22:04:14.606Z,5.22
2023-02-19T22:06:43.766Z,6.22
2023-02-19T22:09:12.005Z,7.57
2023-02-19T22:11:40.563Z,5.20
2023-02-19T22:14:08.800Z,6.78
2023-02-19T22:16:37.336Z,7.45
2023-02-19T22:19:04.802Z,7.75
2023-02-19T22:21:41.955Z,8.45
2023-02-19T22:24:18.314Z,7.47
2023-02-19T22:26:46.005Z,10.68
2023-02-19T22:29:15.463Z,7.13
2023-02-19T22:31:43.310Z,8.73
2023-02-19T22:34:10.720Z,9.07
2023-02-19T22:36:38.355Z,13.13
2023-02-19T22:39:08.202Z,8.38
2023-02-19T22:41:35.923Z,8.15
2023-02-19T22:44:05.831Z,10.57
2023-02-19T22:46:36.166Z,9.38
2023-02-19T22:49:08.713Z,7.55
2023-02-19T22:51:36.970Z,13.48
2023-02-19T22:54:06.777Z,10.80
2023-02-19T22:56:36.288Z,10.07
2023-02-19T23:01:37.444Z,9.82
2023-02-19T23:04:06.871Z,9.93
2023-02-19T23:06:38.525Z,11.55
2023-02-19T23:09:16.550Z,12.20
2023-02-19T23:11:48.868Z,10.05
2023-02-19T23:14:20.631Z,10.88
2023-02-19T23:16:50.252Z,11.30
2023-02-19T23:19:23.993Z,9.50
2023-02-19T23:21:57.074Z,10.77
2023-02-19T23:24:25.625Z,11.25
2023-02-19T23:26:55.563Z,9.32
2023-02-19T23:29:26.458Z,12.70
2023-02-19T23:31:56.401Z,9.85
2023-02-19T23:34:29.122Z,14.13
2023-02-19T23:37:00.881Z,13.57
2023-02-19T23:39:32.368Z,15.48
2023-02-19T23:42:00.545Z,13.48
2023-02-19T23:44:34.326Z,11.43
2023-02-19T23:47:05.220Z,12.88
2023-02-19T23:49:33.366Z,13.88
2023-02-19T23:52:02.897Z,15.05
2023-02-19T23:54:32.458Z,12.77
2023-02-19T23:57:02.523Z,13.50
2023-02-19T23:59:32.131Z,12.30
